Veurne, Belgium
Current Conditions -  °F | °C
As of 7:33 AM on Tuesday 21 Oct 2014 (Local Time) from EBFN Reporting Station
Broken Clouds Broken Clouds  
Wind Chill: 55°   Ceiling: 3500
Heat Index: 55°   Visibility: 6mi
Dew Point: 52°   Wind: 14mph
Humidity: 88%   Direction: 200°SSW
Pressure: 29.71"   Gusts: NA
Location:  51.07°N, 2.66°E
Report Text: EBFN 210533Z 20012KT 9999 FEW011 SCT020 BKN035 13/11 Q1006 WHT WHT TEMPO GRN
Loading
Personal Weather Stations






























Interactive Weather Map New forecast layout! Learn more

10-Day Weather Forecast

Advertisements
Track Severe Weather on mobile